sensor_id;sensor_type;location;lat;lon;timestamp;pressure;altitude;pressure_sealevel;temperature;humidity
32181;BME280;19172;51.504;3.894;2022-09-02T00:01:30;101543.09;;;25.68;51.51
32181;BME280;19172;51.504;3.894;2022-09-02T00:04:05;101538.41;;;25.53;51.26
32181;BME280;19172;51.504;3.894;2022-09-02T00:06:33;101540.59;;;25.26;51.31
32181;BME280;19172;51.504;3.894;2022-09-02T00:09:03;101534.13;;;24.92;52.61
32181;BME280;19172;51.504;3.894;2022-09-02T00:11:34;101530.22;;;25.17;52.97
32181;BME280;19172;51.504;3.894;2022-09-02T00:14:06;101525.69;;;25.37;51.84
32181;BME280;19172;51.504;3.894;2022-09-02T00:16:34;101527.13;;;25.06;52.56
32181;BME280;19172;51.504;3.894;2022-09-02T00:19:03;101521.22;;;25.36;52.24
32181;BME280;19172;51.504;3.894;2022-09-02T00:21:32;101524.84;;;24.97;52.17
32181;BME280;19172;51.504;3.894;2022-09-02T00:24:02;101521.59;;;24.89;52.83
32181;BME280;19172;51.504;3.894;2022-09-02T00:26:31;101517.00;;;24.51;52.97
32181;BME280;19172;51.504;3.894;2022-09-02T00:28:59;101515.88;;;24.56;53.38
32181;BME280;19172;51.504;3.894;2022-09-02T00:31:27;101516.06;;;24.52;53.50
32181;BME280;19172;51.504;3.894;2022-09-02T00:33:55;101518.91;;;24.89;52.85
32181;BME280;19172;51.504;3.894;2022-09-02T00:36:23;101510.25;;;24.61;53.11
32181;BME280;19172;51.504;3.894;2022-09-02T00:38:52;101510.28;;;24.41;53.17
32181;BME280;19172;51.504;3.894;2022-09-02T00:41:23;101519.06;;;24.04;53.03
32181;BME280;19172;51.504;3.894;2022-09-02T00:44:02;101508.53;;;24.40;54.65
32181;BME280;19172;51.504;3.894;2022-09-02T00:46:32;101515.69;;;24.20;53.99
32181;BME280;19172;51.504;3.894;2022-09-02T00:51:52;101503.56;;;24.09;54.43
32181;BME280;19172;51.504;3.894;2022-09-02T00:54:23;101504.66;;;23.83;55.21
32181;BME280;19172;51.504;3.894;2022-09-02T00:56:53;101502.41;;;23.73;56.03
32181;BME280;19172;51.504;3.894;2022-09-02T01:02:10;101497.81;;;23.53;56.50
32181;BME280;19172;51.504;3.894;2022-09-02T01:04:38;101492.06;;;23.39;56.79
32181;BME280;19172;51.504;3.894;2022-09-02T01:07:06;101493.16;;;23.78;56.87
32181;BME280;19172;51.504;3.894;2022-09-02T01:09:34;101490.34;;;23.59;56.65
32181;BME280;19172;51.504;3.894;2022-09-02T01:12:03;101491.13;;;23.40;56.44
32181;BME280;19172;51.504;3.894;2022-09-02T01:14:31;101489.19;;;23.20;55.93
32181;BME280;19172;51.504;3.894;2022-09-02T01:17:01;101496.38;;;23.44;56.46
32181;BME280;19172;51.504;3.894;2022-09-02T01:19:43;101490.69;;;23.29;56.17
32181;BME280;19172;51.504;3.894;2022-09-02T01:22:22;101496.38;;;23.44;55.56
32181;BME280;19172;51.504;3.894;2022-09-02T01:24:50;101488.19;;;23.89;55.76
32181;BME280;19172;51.504;3.894;2022-09-02T01:27:22;101486.97;;;23.54;56.18
32181;BME280;19172;51.504;3.894;2022-09-02T01:29:51;101484.25;;;23.54;55.09
32181;BME280;19172;51.504;3.894;2022-09-02T01:32:21;101489.19;;;23.65;54.92
32181;BME280;19172;51.504;3.894;2022-09-02T01:34:49;101485.84;;;23.13;54.63
32181;BME280;19172;51.504;3.894;2022-09-02T01:37:18;101484.19;;;23.33;55.31
32181;BME280;19172;51.504;3.894;2022-09-02T01:39:46;101484.16;;;23.34;56.33
32181;BME280;19172;51.504;3.894;2022-09-02T01:42:15;101484.56;;;23.47;55.72
32181;BME280;19172;51.504;3.894;2022-09-02T01:44:43;101476.84;;;23.59;55.71
32181;BME280;19172;51.504;3.894;2022-09-02T01:47:15;101481.38;;;23.36;55.71
32181;BME280;19172;51.504;3.894;2022-09-02T01:49:45;101485.00;;;23.58;55.81
32181;BME280;19172;51.504;3.894;2022-09-02T01:52:13;101481.31;;;23.81;55.57
32181;BME280;19172;51.504;3.894;2022-09-02T01:54:41;101469.91;;;23.96;55.60
32181;BME280;19172;51.504;3.894;2022-09-02T01:57:09;101479.19;;;23.89;55.28
32181;BME280;19172;51.504;3.894;2022-09-02T01:59:38;101474.50;;;23.72;55.28
32181;BME280;19172;51.504;3.894;2022-09-02T02:02:06;101469.72;;;24.20;55.55
32181;BME280;19172;51.504;3.894;2022-09-02T02:04:34;101468.66;;;24.25;54.71
32181;BME280;19172;51.504;3.894;2022-09-02T02:07:04;101473.13;;;23.40;55.35
32181;BME280;19172;51.504;3.894;2022-09-02T02:09:32;101472.75;;;23.71;56.05
32181;BME280;19172;51.504;3.894;2022-09-02T02:12:00;101468.00;;;23.33;55.92
32181;BME280;19172;51.504;3.894;2022-09-02T02:14:30;101466.22;;;23.55;56.36
32181;BME280;19172;51.504;3.894;2022-09-02T02:16:57;101470.69;;;23.56;56.46
32181;BME280;19172;51.504;3.894;2022-09-02T02:19:25;101456.84;;;23.85;55.74
32181;BME280;19172;51.504;3.894;2022-09-02T02:21:53;101455.38;;;23.33;56.10
32181;BME280;19172;51.504;3.894;2022-09-02T02:24:21;101459.00;;;23.10;56.53
32181;BME280;19172;51.504;3.894;2022-09-02T02:26:49;101456.22;;;22.67;57.00
32181;BME280;19172;51.504;3.894;2022-09-02T02:29:19;101450.47;;;22.99;57.62
32181;BME280;19172;51.504;3.894;2022-09-02T02:31:48;101448.47;;;23.04;57.17
32181;BME280;19172;51.504;3.894;2022-09-02T02:34:17;101453.00;;;22.56;57.69
32181;BME280;19172;51.504;3.894;2022-09-02T02:36:46;101446.25;;;22.92;59.25
32181;BME280;19172;51.504;3.894;2022-09-02T02:39:14;101445.44;;;22.67;58.61
32181;BME280;19172;51.504;3.894;2022-09-02T02:41:43;101442.38;;;22.76;58.99
32181;BME280;19172;51.504;3.894;2022-09-02T02:44:11;101438.69;;;23.24;58.23
32181;BME280;19172;51.504;3.894;2022-09-02T02:46:40;101438.88;;;22.97;58.56
32181;BME280;19172;51.504;3.894;2022-09-02T02:49:08;101439.78;;;23.63;57.34
32181;BME280;19172;51.504;3.894;2022-09-02T02:51:36;101442.31;;;23.46;56.67
32181;BME280;19172;51.504;3.894;2022-09-02T02:54:05;101442.41;;;23.64;56.73
32181;BME280;19172;51.504;3.894;2022-09-02T02:56:33;101441.31;;;23.70;56.80
32181;BME280;19172;51.504;3.894;2022-09-02T02:59:03;101442.22;;;23.69;56.65
32181;BME280;19172;51.504;3.894;2022-09-02T03:01:33;101440.59;;;23.65;56.96
32181;BME280;19172;51.504;3.894;2022-09-02T03:04:04;101446.69;;;23.70;57.09
32181;BME280;19172;51.504;3.894;2022-09-02T03:06:32;101439.50;;;24.11;56.27
32181;BME280;19172;51.504;3.894;2022-09-02T03:09:00;101441.78;;;23.80;55.90
32181;BME280;19172;51.504;3.894;2022-09-02T03:11:28;101432.88;;;23.98;56.65
32181;BME280;19172;51.504;3.894;2022-09-02T03:13:57;101434.41;;;24.03;56.67
32181;BME280;19172;51.504;3.894;2022-09-02T03:16:25;101435.25;;;24.26;55.70
32181;BME280;19172;51.504;3.894;2022-09-02T03:18:54;101435.53;;;24.40;55.47
32181;BME280;19172;51.504;3.894;2022-09-02T03:21:21;101433.53;;;24.25;55.46
32181;BME280;19172;51.504;3.894;2022-09-02T03:23:50;101433.00;;;24.55;55.14
32181;BME280;19172;51.504;3.894;2022-09-02T03:26:21;101431.19;;;24.36;55.57
32181;BME280;19172;51.504;3.894;2022-09-02T03:28:53;101431.03;;;24.59;55.03
32181;BME280;19172;51.504;3.894;2022-09-02T03:31:25;101440.03;;;24.59;54.88
32181;BME280;19172;51.504;3.894;2022-09-02T03:33:55;101436.56;;;24.76;54.63
32181;BME280;19172;51.504;3.894;2022-09-02T03:36:24;101430.78;;;24.45;54.81
32181;BME280;19172;51.504;3.894;2022-09-02T03:38:54;101427.53;;;24.57;55.23
32181;BME280;19172;51.504;3.894;2022-09-02T03:41:23;101425.09;;;24.51;55.58
32181;BME280;19172;51.504;3.894;2022-09-02T03:43:53;101423.06;;;24.56;55.99
32181;BME280;19172;51.504;3.894;2022-09-02T03:46:21;101430.53;;;24.31;56.16
32181;BME280;19172;51.504;3.894;2022-09-02T03:48:49;101427.41;;;23.99;56.90
32181;BME280;19172;51.504;3.894;2022-09-02T03:51:19;101427.00;;;23.46;57.25
32181;BME280;19172;51.504;3.894;2022-09-02T03:53:47;101426.50;;;23.13;58.89
32181;BME280;19172;51.504;3.894;2022-09-02T03:56:15;101420.03;;;22.96;60.24
32181;BME280;19172;51.504;3.894;2022-09-02T03:58:46;101417.47;;;23.36;59.73
32181;BME280;19172;51.504;3.894;2022-09-02T04:01:21;101419.59;;;23.51;59.72
32181;BME280;19172;51.504;3.894;2022-09-02T04:03:51;101417.25;;;23.42;60.62
32181;BME280;19172;51.504;3.894;2022-09-02T04:06:22;101409.91;;;23.24;60.53
32181;BME280;19172;51.504;3.894;2022-09-02T04:08:55;101410.78;;;22.80;62.16
32181;BME280;19172;51.504;3.894;2022-09-02T04:11:23;101409.22;;;22.97;62.75
32181;BME280;19172;51.504;3.894;2022-09-02T04:13:53;101410.63;;;22.84;62.81
32181;BME280;19172;51.504;3.894;2022-09-02T04:16:25;101401.47;;;22.65;63.31
32181;BME280;19172;51.504;3.894;2022-09-02T04:19:00;101404.59;;;22.78;64.14
32181;BME280;19172;51.504;3.894;2022-09-02T04:21:32;101387.84;;;22.91;63.44
32181;BME280;19172;51.504;3.894;2022-09-02T04:24:01;101396.31;;;22.82;63.15
32181;BME280;19172;51.504;3.894;2022-09-02T04:26:29;101390.09;;;22.80;63.33
32181;BME280;19172;51.504;3.894;2022-09-02T04:28:58;101394.84;;;22.74;63.35
32181;BME280;19172;51.504;3.894;2022-09-02T04:31:28;101394.84;;;22.74;63.68
32181;BME280;19172;51.504;3.894;2022-09-02T04:34:00;101396.78;;;22.70;64.62
32181;BME280;19172;51.504;3.894;2022-09-02T04:36:29;101393.94;;;22.75;63.91
32181;BME280;19172;51.504;3.894;2022-09-02T04:38:59;101389.88;;;23.08;64.22
32181;BME280;19172;51.504;3.894;2022-09-02T04:41:30;101391.78;;;22.59;64.06
32181;BME280;19172;51.504;3.894;2022-09-02T04:44:03;101392.56;;;22.86;64.53
32181;BME280;19172;51.504;3.894;2022-09-02T04:46:36;101389.06;;;22.84;64.57
32181;BME280;19172;51.504;3.894;2022-09-02T04:49:07;101392.56;;;22.40;64.77
32181;BME280;19172;51.504;3.894;2022-09-02T04:51:37;101391.81;;;22.83;64.74
32181;BME280;19172;51.504;3.894;2022-09-02T04:54:06;101387.75;;;23.16;63.69
32181;BME280;19172;51.504;3.894;2022-09-02T04:56:37;101388.81;;;23.12;63.45
32181;BME280;19172;51.504;3.894;2022-09-02T04:59:06;101387.28;;;23.27;63.39
32181;BME280;19172;51.504;3.894;2022-09-02T05:01:37;101382.34;;;23.38;62.00
32181;BME280;19172;51.504;3.894;2022-09-02T05:04:11;101380.78;;;23.54;61.68
32181;BME280;19172;51.504;3.894;2022-09-02T05:06:43;101388.06;;;23.30;61.37
32181;BME280;19172;51.504;3.894;2022-09-02T05:09:20;101387.44;;;23.24;61.50
32181;BME280;19172;51.504;3.894;2022-09-02T05:11:53;101386.91;;;23.36;62.16
32181;BME280;19172;51.504;3.894;2022-09-02T05:14:30;101385.47;;;23.27;61.82
32181;BME280;19172;51.504;3.894;2022-09-02T05:17:02;101383.13;;;23.19;61.76
32181;BME280;19172;51.504;3.894;2022-09-02T05:19:36;101384.56;;;23.06;63.70
32181;BME280;19172;51.504;3.894;2022-09-02T05:22:04;101387.63;;;23.19;62.97
32181;BME280;19172;51.504;3.894;2022-09-02T05:24:36;101385.63;;;23.02;63.06
32181;BME280;19172;51.504;3.894;2022-09-02T05:27:08;101390.84;;;23.29;63.09
32181;BME280;19172;51.504;3.894;2022-09-02T05:29:36;101395.38;;;22.83;61.68
32181;BME280;19172;51.504;3.894;2022-09-02T05:32:05;101395.50;;;22.80;63.32
32181;BME280;19172;51.504;3.894;2022-09-02T05:34:37;101394.50;;;22.83;64.00
32181;BME280;19172;51.504;3.894;2022-09-02T05:37:05;101390.38;;;22.96;63.80
32181;BME280;19172;51.504;3.894;2022-09-02T05:39:34;101387.63;;;23.19;63.54
32181;BME280;19172;51.504;3.894;2022-09-02T05:42:04;101389.31;;;22.78;62.50
32181;BME280;19172;51.504;3.894;2022-09-02T05:44:35;101388.72;;;22.92;62.75
32181;BME280;19172;51.504;3.894;2022-09-02T05:47:04;101396.25;;;21.61;64.66
32181;BME280;19172;51.504;3.894;2022-09-02T05:49:33;101394.59;;;22.56;65.50
32181;BME280;19172;51.504;3.894;2022-09-02T05:52:05;101391.63;;;22.87;64.06
32181;BME280;19172;51.504;3.894;2022-09-02T05:54:43;101387.88;;;23.35;63.68
32181;BME280;19172;51.504;3.894;2022-09-02T05:57:16;101388.06;;;23.52;61.86
32181;BME280;19172;51.504;3.894;2022-09-02T05:59:57;101384.00;;;24.24;61.00
32181;BME280;19172;51.504;3.894;2022-09-02T06:02:41;101387.50;;;23.86;60.60
32181;BME280;19172;51.504;3.894;2022-09-02T06:05:14;101382.34;;;24.00;61.80
32181;BME280;19172;51.504;3.894;2022-09-02T06:07:50;101389.59;;;23.79;60.64
32181;BME280;19172;51.504;3.894;2022-09-02T06:10:21;101379.31;;;23.87;61.23
32181;BME280;19172;51.504;3.894;2022-09-02T06:12:49;101386.19;;;23.54;61.23
32181;BME280;19172;51.504;3.894;2022-09-02T06:15:21;101381.81;;;23.92;61.07
32181;BME280;19172;51.504;3.894;2022-09-02T06:17:49;101387.47;;;23.65;60.52
32181;BME280;19172;51.504;3.894;2022-09-02T06:20:17;101382.56;;;22.88;63.41
32181;BME280;19172;51.504;3.894;2022-09-02T06:22:47;101381.47;;;23.59;63.43
32181;BME280;19172;51.504;3.894;2022-09-02T06:25:15;101375.19;;;23.58;63.65
32181;BME280;19172;51.504;3.894;2022-09-02T06:27:43;101378.53;;;24.05;62.93
32181;BME280;19172;51.504;3.894;2022-09-02T06:30:12;101375.44;;;24.14;61.66
32181;BME280;19172;51.504;3.894;2022-09-02T06:32:41;101372.44;;;24.00;61.23
32181;BME280;19172;51.504;3.894;2022-09-02T06:35:10;101376.25;;;23.33;62.44
32181;BME280;19172;51.504;3.894;2022-09-02T06:37:38;101375.03;;;23.83;63.70
32181;BME280;19172;51.504;3.894;2022-09-02T06:40:06;101370.41;;;24.05;63.43
32181;BME280;19172;51.504;3.894;2022-09-02T06:42:34;101368.88;;;24.20;62.20
32181;BME280;19172;51.504;3.894;2022-09-02T06:45:16;101372.38;;;23.82;63.19
32181;BME280;19172;51.504;3.894;2022-09-02T06:47:45;101366.06;;;24.79;62.62
32181;BME280;19172;51.504;3.894;2022-09-02T06:50:14;101376.50;;;24.68;61.17
32181;BME280;19172;51.504;3.894;2022-09-02T06:52:42;101367.66;;;24.46;59.89
32181;BME280;19172;51.504;3.894;2022-09-02T06:55:12;101370.50;;;24.80;60.38
32181;BME280;19172;51.504;3.894;2022-09-02T06:57:40;101370.69;;;24.19;60.35
32181;BME280;19172;51.504;3.894;2022-09-02T07:00:12;101365.06;;;23.84;61.38
32181;BME280;19172;51.504;3.894;2022-09-02T07:02:41;101368.25;;;24.52;62.65
32181;BME280;19172;51.504;3.894;2022-09-02T07:05:10;101366.88;;;25.00;61.68
32181;BME280;19172;51.504;3.894;2022-09-02T07:07:43;101365.97;;;24.25;61.18
32181;BME280;19172;51.504;3.894;2022-09-02T07:10:14;101362.59;;;23.79;61.55
32181;BME280;19172;51.504;3.894;2022-09-02T07:12:47;101357.44;;;24.34;62.41
32181;BME280;19172;51.504;3.894;2022-09-02T07:15:17;101354.19;;;24.26;60.48
32181;BME280;19172;51.504;3.894;2022-09-02T07:17:44;101353.69;;;24.73;60.79
32181;BME280;19172;51.504;3.894;2022-09-02T07:20:20;101357.31;;;23.96;58.68
32181;BME280;19172;51.504;3.894;2022-09-02T07:22:52;101355.38;;;23.80;60.37
32181;BME280;19172;51.504;3.894;2022-09-02T07:25:25;101350.28;;;24.12;62.31
32181;BME280;19172;51.504;3.894;2022-09-02T07:27:53;101352.81;;;24.54;62.33
32181;BME280;19172;51.504;3.894;2022-09-02T07:30:22;101347.97;;;24.03;62.35
32181;BME280;19172;51.504;3.894;2022-09-02T07:32:57;101342.13;;;24.14;61.63
32181;BME280;19172;51.504;3.894;2022-09-02T07:35:27;101346.56;;;24.72;61.75
32181;BME280;19172;51.504;3.894;2022-09-02T07:37:56;101344.75;;;24.15;61.12
32181;BME280;19172;51.504;3.894;2022-09-02T07:40:24;101343.88;;;24.15;61.77
32181;BME280;19172;51.504;3.894;2022-09-02T07:42:52;101331.94;;;24.58;61.61
32181;BME280;19172;51.504;3.894;2022-09-02T07:45:22;101335.88;;;25.07;60.42
32181;BME280;19172;51.504;3.894;2022-09-02T07:47:50;101323.59;;;25.53;59.14
32181;BME280;19172;51.504;3.894;2022-09-02T07:50:19;101332.13;;;25.09;57.75
32181;BME280;19172;51.504;3.894;2022-09-02T07:52:57;101324.88;;;25.63;59.17
32181;BME280;19172;51.504;3.894;2022-09-02T07:55:28;101321.66;;;25.72;58.84
32181;BME280;19172;51.504;3.894;2022-09-02T07:57:57;101327.41;;;24.58;58.35
32181;BME280;19172;51.504;3.894;2022-09-02T08:00:25;101326.13;;;25.90;58.43
32181;BME280;19172;51.504;3.894;2022-09-02T08:02:57;101329.41;;;25.62;58.22
32181;BME280;19172;51.504;3.894;2022-09-02T08:05:32;101323.38;;;26.24;58.24
32181;BME280;19172;51.504;3.894;2022-09-02T08:08:01;101330.34;;;25.08;58.46
32181;BME280;19172;51.504;3.894;2022-09-02T08:10:29;101320.47;;;25.26;59.74
32181;BME280;19172;51.504;3.894;2022-09-02T08:12:59;101324.09;;;25.61;59.14
32181;BME280;19172;51.504;3.894;2022-09-02T08:15:29;101321.53;;;25.75;57.33
32181;BME280;19172;51.504;3.894;2022-09-02T08:17:57;101320.63;;;26.57;57.65
32181;BME280;19172;51.504;3.894;2022-09-02T08:20:25;101322.38;;;26.74;55.85
32181;BME280;19172;51.504;3.894;2022-09-02T08:22:53;101308.72;;;26.60;55.50
32181;BME280;19172;51.504;3.894;2022-09-02T08:25:25;101307.94;;;26.73;54.96
32181;BME280;19172;51.504;3.894;2022-09-02T08:27:53;101305.66;;;27.43;56.00
32181;BME280;19172;51.504;3.894;2022-09-02T08:30:22;101309.13;;;28.04;53.95
32181;BME280;19172;51.504;3.894;2022-09-02T08:32:50;101306.44;;;28.32;52.59
32181;BME280;19172;51.504;3.894;2022-09-02T08:35:17;101296.78;;;28.41;52.51
32181;BME280;19172;51.504;3.894;2022-09-02T08:37:46;101302.06;;;28.85;51.80
32181;BME280;19172;51.504;3.894;2022-09-02T08:40:20;101309.19;;;28.59;50.67
32181;BME280;19172;51.504;3.894;2022-09-02T08:42:54;101303.31;;;28.67;51.27
32181;BME280;19172;51.504;3.894;2022-09-02T08:49:10;101314.25;;;28.79;51.10
32181;BME280;19172;51.504;3.894;2022-09-02T08:51:36;101311.19;;;28.15;50.78
32181;BME280;19172;51.504;3.894;2022-09-02T08:55:25;101319.34;;;29.52;50.83
32181;BME280;19172;51.504;3.894;2022-09-02T08:59:10;101298.28;;;30.06;49.58
32181;BME280;19172;51.504;3.894;2022-09-02T09:01:51;101305.84;;;28.42;51.31
32181;BME280;19172;51.504;3.894;2022-09-02T09:04:56;101304.75;;;28.58;52.50
32181;BME280;19172;51.504;3.894;2022-09-02T09:13:55;101300.69;;;28.92;50.31
32181;BME280;19172;51.504;3.894;2022-09-02T09:16:39;101301.56;;;28.93;50.50
32181;BME280;19172;51.504;3.894;2022-09-02T09:19:16;101300.75;;;29.05;51.96
32181;BME280;19172;51.504;3.894;2022-09-02T09:21:47;101292.97;;;28.72;51.04
32181;BME280;19172;51.504;3.894;2022-09-02T09:24:24;101290.09;;;28.75;51.31
32181;BME280;19172;51.504;3.894;2022-09-02T09:26:55;101284.53;;;29.30;51.55
32181;BME280;19172;51.504;3.894;2022-09-02T09:29:25;101282.25;;;28.28;52.52
32181;BME280;19172;51.504;3.894;2022-09-02T09:34:53;101276.81;;;29.49;52.44
32181;BME280;19172;51.504;3.894;2022-09-02T09:37:41;101283.28;;;29.21;51.02
32181;BME280;19172;51.504;3.894;2022-09-02T09:45:45;101267.66;;;30.38;50.52
32181;BME280;19172;51.504;3.894;2022-09-02T09:48:18;101280.81;;;30.08;49.13
32181;BME280;19172;51.504;3.894;2022-09-02T09:53:27;101284.03;;;29.50;48.91
32181;BME280;19172;51.504;3.894;2022-09-02T10:01:18;101268.34;;;29.66;49.59
32181;BME280;19172;51.504;3.894;2022-09-02T10:04:01;101267.16;;;30.21;50.29
32181;BME280;19172;51.504;3.894;2022-09-02T10:09:03;101267.00;;;30.97;49.24
32181;BME280;19172;51.504;3.894;2022-09-02T10:11:35;101262.50;;;29.85;48.71
32181;BME280;19172;51.504;3.894;2022-09-02T10:14:10;101258.50;;;31.12;48.43
32181;BME280;19172;51.504;3.894;2022-09-02T10:19:54;101255.03;;;30.50;49.05
32181;BME280;19172;51.504;3.894;2022-09-02T10:28:39;101260.84;;;30.20;46.83
32181;BME280;19172;51.504;3.894;2022-09-02T10:31:30;101247.31;;;31.15;47.62
32181;BME280;19172;51.504;3.894;2022-09-02T10:34:33;101248.63;;;30.99;46.77
32181;BME280;19172;51.504;3.894;2022-09-02T10:37:19;101243.22;;;31.44;45.80
32181;BME280;19172;51.504;3.894;2022-09-02T10:45:45;101226.78;;;31.33;46.36
32181;BME280;19172;51.504;3.894;2022-09-02T10:57:31;101232.47;;;30.10;46.83
32181;BME280;19172;51.504;3.894;2022-09-02T11:00:13;101216.75;;;30.26;45.86
32181;BME280;19172;51.504;3.894;2022-09-02T11:03:04;101213.19;;;29.88;46.09
32181;BME280;19172;51.504;3.894;2022-09-02T11:05:51;101204.94;;;31.33;44.38
32181;BME280;19172;51.504;3.894;2022-09-02T11:08:44;101196.94;;;31.65;43.06
32181;BME280;19172;51.504;3.894;2022-09-02T11:11:56;101203.56;;;31.39;42.75
32181;BME280;19172;51.504;3.894;2022-09-02T11:14:30;101200.69;;;31.86;43.57
32181;BME280;19172;51.504;3.894;2022-09-02T11:17:12;101198.59;;;32.12;42.57
32181;BME280;19172;51.504;3.894;2022-09-02T11:25:24;101201.09;;;30.05;44.18
32181;BME280;19172;51.504;3.894;2022-09-02T11:27:58;101190.13;;;30.66;44.12
32181;BME280;19172;51.504;3.894;2022-09-02T11:30:45;101187.38;;;30.30;44.03
32181;BME280;19172;51.504;3.894;2022-09-02T11:33:36;101174.69;;;30.41;43.90
32181;BME280;19172;51.504;3.894;2022-09-02T11:36:09;101178.59;;;30.14;43.78
32181;BME280;19172;51.504;3.894;2022-09-02T11:38:50;101169.50;;;31.78;43.65
32181;BME280;19172;51.504;3.894;2022-09-02T11:42:09;101174.44;;;31.73;42.17
32181;BME280;19172;51.504;3.894;2022-09-02T11:44:52;101167.25;;;30.91;43.25
32181;BME280;19172;51.504;3.894;2022-09-02T11:52:44;101167.72;;;31.55;40.90
32181;BME280;19172;51.504;3.894;2022-09-02T11:58:34;101158.28;;;31.02;40.39
32181;BME280;19172;51.504;3.894;2022-09-02T12:01:15;101148.16;;;32.48;40.20
32181;BME280;19172;51.504;3.894;2022-09-02T12:09:49;101146.00;;;33.87;38.58
32181;BME280;19172;51.504;3.894;2022-09-02T12:26:22;101132.75;;;34.41;36.35
32181;BME280;19172;51.504;3.894;2022-09-02T12:28:51;101136.84;;;34.07;36.66
32181;BME280;19172;51.504;3.894;2022-09-02T12:31:42;101127.13;;;34.33;36.01
32181;BME280;19172;51.504;3.894;2022-09-02T12:36:55;101122.19;;;34.56;36.44
32181;BME280;19172;51.504;3.894;2022-09-02T12:42:17;101124.09;;;34.55;35.71
32181;BME280;19172;51.504;3.894;2022-09-02T12:45:14;101121.88;;;35.36;35.78
32181;BME280;19172;51.504;3.894;2022-09-02T12:48:01;101114.25;;;34.91;35.79
32181;BME280;19172;51.504;3.894;2022-09-02T12:50:52;101118.34;;;34.78;35.89
32181;BME280;19172;51.504;3.894;2022-09-02T12:53:28;101118.91;;;34.52;35.53
32181;BME280;19172;51.504;3.894;2022-09-02T12:58:37;101104.00;;;35.03;36.35
32181;BME280;19172;51.504;3.894;2022-09-02T13:01:28;101110.94;;;34.78;36.26
32181;BME280;19172;51.504;3.894;2022-09-02T13:10:08;101098.25;;;34.77;36.39
32181;BME280;19172;51.504;3.894;2022-09-02T13:32:28;101105.38;;;33.41;36.61
32181;BME280;19172;51.504;3.894;2022-09-02T13:35:05;101087.53;;;34.55;36.34
32181;BME280;19172;51.504;3.894;2022-09-02T13:37:40;101080.16;;;34.84;36.25
32181;BME280;19172;51.504;3.894;2022-09-02T13:40:28;101086.63;;;32.84;36.42
32181;BME280;19172;51.504;3.894;2022-09-02T13:43:17;101085.25;;;34.01;36.47
32181;BME280;19172;51.504;3.894;2022-09-02T13:45:48;101077.94;;;32.99;36.82
32181;BME280;19172;51.504;3.894;2022-09-02T13:48:23;101078.06;;;32.57;36.70
32181;BME280;19172;51.504;3.894;2022-09-02T13:50:55;101079.78;;;33.10;37.70
32181;BME280;19172;51.504;3.894;2022-09-02T13:53:32;101072.66;;;33.08;37.58
32181;BME280;19172;51.504;3.894;2022-09-02T13:56:23;101061.94;;;33.86;37.09
32181;BME280;19172;51.504;3.894;2022-09-02T13:58:54;101062.50;;;33.40;36.71
32181;BME280;19172;51.504;3.894;2022-09-02T14:01:34;101075.03;;;32.28;36.61
32181;BME280;19172;51.504;3.894;2022-09-02T14:04:09;101051.44;;;33.21;37.17
32181;BME280;19172;51.504;3.894;2022-09-02T14:06:41;101045.53;;;34.05;37.12
32181;BME280;19172;51.504;3.894;2022-09-02T14:09:21;101045.50;;;33.95;36.00
32181;BME280;19172;51.504;3.894;2022-09-02T14:11:51;101055.16;;;33.40;37.11
32181;BME280;19172;51.504;3.894;2022-09-02T14:14:23;101056.13;;;33.60;35.85
32181;BME280;19172;51.504;3.894;2022-09-02T14:16:51;101047.56;;;32.82;35.73
32181;BME280;19172;51.504;3.894;2022-09-02T14:21:54;101041.91;;;31.99;36.58
32181;BME280;19172;51.504;3.894;2022-09-02T14:24:28;101024.47;;;33.26;36.01
32181;BME280;19172;51.504;3.894;2022-09-02T14:26:58;101022.25;;;33.80;35.12
32181;BME280;19172;51.504;3.894;2022-09-02T14:29:29;101020.03;;;33.65;35.42
32181;BME280;19172;51.504;3.894;2022-09-02T14:32:05;101014.00;;;33.71;35.05
32181;BME280;19172;51.504;3.894;2022-09-02T14:34:42;101019.19;;;33.34;36.14
32181;BME280;19172;51.504;3.894;2022-09-02T14:37:24;101008.88;;;33.57;35.70
32181;BME280;19172;51.504;3.894;2022-09-02T14:40:06;101015.63;;;32.92;35.45
32181;BME280;19172;51.504;3.894;2022-09-02T14:42:56;101013.50;;;32.75;35.53
32181;BME280;19172;51.504;3.894;2022-09-02T14:45:28;101004.56;;;33.03;35.71
32181;BME280;19172;51.504;3.894;2022-09-02T14:48:00;101002.31;;;32.14;35.95
32181;BME280;19172;51.504;3.894;2022-09-02T14:50:31;101003.81;;;32.71;36.80
32181;BME280;19172;51.504;3.894;2022-09-02T14:53:07;101000.34;;;33.20;36.35
32181;BME280;19172;51.504;3.894;2022-09-02T14:55:56;100995.94;;;32.25;36.90
32181;BME280;19172;51.504;3.894;2022-09-02T14:58:26;100995.78;;;32.58;36.91
32181;BME280;19172;51.504;3.894;2022-09-02T15:00:58;100984.75;;;32.90;36.32
32181;BME280;19172;51.504;3.894;2022-09-02T15:03:28;100999.00;;;31.99;36.53
32181;BME280;19172;51.504;3.894;2022-09-02T15:05:57;100991.00;;;32.39;36.39
32181;BME280;19172;51.504;3.894;2022-09-02T15:08:25;100996.41;;;32.30;36.00
32181;BME280;19172;51.504;3.894;2022-09-02T15:10:57;100984.56;;;31.97;36.34
32181;BME280;19172;51.504;3.894;2022-09-02T15:13:30;100980.84;;;31.98;36.28
32181;BME280;19172;51.504;3.894;2022-09-02T15:16:01;100991.19;;;32.59;36.27
32181;BME280;19172;51.504;3.894;2022-09-02T15:18:29;100985.59;;;32.49;35.59
32181;BME280;19172;51.504;3.894;2022-09-02T15:20:57;100986.63;;;32.89;36.06
32181;BME280;19172;51.504;3.894;2022-09-02T15:23:25;100982.94;;;32.38;36.03
32181;BME280;19172;51.504;3.894;2022-09-02T15:25:53;100977.47;;;32.38;36.15
32181;BME280;19172;51.504;3.894;2022-09-02T15:28:21;100987.78;;;31.48;36.11
32181;BME280;19172;51.504;3.894;2022-09-02T15:30:56;100979.44;;;31.72;36.52